CPX674 Details

Departure: Lynden Pindling International Airport (MYNN)
Arrival: Grand Bahama International Airport (MYGF) at N/A
Route: PEACH BR65V ZFP
Notes:


Current Weather Information
MYNN 191600Z 13011KT 9999 FEW016CB SCT025 31/24 A3007
MYGF 191610Z 30010KT 290V050 9999 -TSRA SCT012TCU BKN015CB 24/23 A3010